Time;durP1;ratioP1;P1;durP2;ratioP2;P2;SDS_P1;SDS_P2;PMS_P1;PMS_P2;Temp;Humidity;BMP_temperature;BMP_pressure;BME280_temperature;BME280_humidity;BME280_pressure;Samples;Min_cycle;Max_cycle;Signal;HPM_P1;HPM_P2
2022/05/05 00:01:23;;;;;;;;;;;;;;;;;;5027298;28;20044;-53
2022/05/05 00:03:49;;;;;;;;;;;;;;;;;;5027424;28;19917;-50
2022/05/05 00:06:14;;;;;;;;;;;;;;;;;;5025313;28;20059;-52
2022/05/05 00:08:40;;;;;;;;;;;;;;;;;;5027780;28;19925;-51
2022/05/05 00:16:33;;;;;;;;;;;;;;;;;;5025598;28;20366;-50
2022/05/05 00:18:58;;;;;;;;;;;;;;;;;;5026420;28;19949;-53
2022/05/05 00:21:24;;;;;;;;;;;;;;;;;;5024175;28;20221;-54
2022/05/05 00:23:49;;;;;;;;;;;;;;;;;;5024267;28;21723;-53
2022/05/05 00:26:14;;;;;;;;;;;;;;;;;;5024709;28;19999;-53
2022/05/05 00:28:40;;;;;;;;;;;;;;;;;;5026099;28;19917;-53
2022/05/05 00:31:05;;;;;;;;;;;;;;;;;;5030297;28;20054;-52
2022/05/05 00:33:30;;;;;;;;;;;;;;;;;;5029184;28;20374;-53
2022/05/05 00:35:56;;;;;;;;;;;;;;;;;;5026982;28;19925;-53
2022/05/05 00:38:21;;;;;;;;;;;;;;;;;;5026969;28;19992;-54
2022/05/05 00:40:47;;;;;;;;;;;;;;;;;;5023450;28;19917;-53
2022/05/05 00:43:12;;;;;;;;;;;;;;;;;;5025926;28;19917;-51
2022/05/05 00:45:37;;;;;;;;;;;;;;;;;;5022414;28;19921;-52
2022/05/05 00:48:06;;;;;;;;;;;;;;;;;;5026659;28;19932;-50
2022/05/05 00:50:35;;;;;;;;;;;;;;;;;;5027077;28;19917;-52
2022/05/05 00:53:00;;;;;;;;;;;;;;;;;;5025414;28;20390;-52
2022/05/05 00:55:26;;;;;;;;;;;;;;;;;;5025502;28;19924;-53
2022/05/05 00:57:51;;;;;;;;;;;;;;;;;;5026361;28;20000;-53
2022/05/05 01:00:17;;;;;;;;;;;;;;;;;;5026613;28;19978;-51
2022/05/05 01:02:42;;;;;;;;;;;;;;;;;;5028052;28;19924;-53
2022/05/05 01:05:07;;;;;;;;;;;;;;;;;;5024029;28;19932;-53
2022/05/05 01:07:33;;;;;;;;;;;;;;;;;;5025904;28;19924;-53
2022/05/05 01:09:58;;;;;;;;;;;;;;;;;;5024590;28;19925;-53
2022/05/05 01:12:29;;;;;;;;;;;;;;;;;;5023971;28;20038;-53
2022/05/05 01:14:54;;;;;;;;;;;;;;;;;;5021870;28;19933;-53
2022/05/05 01:17:21;;;;;;;;;;;;;;;;;;5024318;28;19991;-53
2022/05/05 01:19:46;;;;;;;;;;;;;;;;;;5024584;28;20003;-52
2022/05/05 01:22:11;;;;;;;;;;;;;;;;;;5024972;28;20012;-52
2022/05/05 01:30:05;;;;;;;;;;;;;;;;;;5025701;28;20297;-52
2022/05/05 01:32:31;;;;;;;;;;;;;;;;;;5023275;28;20007;-50
2022/05/05 01:34:56;;;;;;;;;;;;;;;;;;5024405;28;19921;-51
2022/05/05 01:37:22;;;;;;;;;;;;;;;;;;5027593;28;20375;-53
2022/05/05 01:39:48;;;;;;;;;;;;;;;;;;5023724;28;19975;-53
2022/05/05 01:42:13;;;;;;;;;;;;;;;;;;5021813;28;19987;-53
2022/05/05 01:44:38;;;;;;;;;;;;;;;;;;5024551;28;19917;-53
2022/05/05 01:47:04;;;;;;;;;;;;;;;;;;5029608;28;19971;-51
2022/05/05 01:49:29;;;;;;;;;;;;;;;;;;5026457;28;19964;-53
2022/05/05 01:51:55;;;;;;;;;;;;;;;;;;5025819;28;20331;-52
2022/05/05 01:54:20;;;;;;;;;;;;;;;;;;5023896;28;20414;-52
2022/05/05 01:56:46;;;;;;;;;;;;;;;;;;5025278;28;19996;-51
2022/05/05 01:59:11;;;;;;;;;;;;;;;;;;5027605;28;20350;-51
2022/05/05 02:01:36;;;;;;;;;;;;;;;;;;5023694;28;19928;-51
2022/05/05 02:04:01;;;;;;;;;;;;;;;;;;5023311;28;19928;-51
2022/05/05 02:06:27;;;;;;;;;;;;;;;;;;5022734;28;19921;-52
2022/05/05 02:08:52;;;;;;;;;;;;;;;;;;5024484;28;20319;-52
2022/05/05 02:11:18;;;;;;;;;;;;;;;;;;5025885;28;19924;-54
2022/05/05 02:13:43;;;;;;;;;;;;;;;;;;5020794;28;19927;-52
2022/05/05 02:16:08;;;;;;;;;;;;;;;;;;5026185;28;20371;-53
2022/05/05 02:18:34;;;;;;;;;;;;;;;;;;5022329;28;19925;-52
2022/05/05 02:20:59;;;;;;;;;;;;;;;;;;5023265;28;19928;-52
2022/05/05 02:23:24;;;;;;;;;;;;;;;;;;5024955;28;19917;-53
2022/05/05 02:25:50;;;;;;;;;;;;;;;;;;5022622;28;20018;-51
2022/05/05 02:28:15;;;;;;;;;;;;;;;;;;5024029;28;19925;-52
2022/05/05 02:30:40;;;;;;;;;;;;;;;;;;5023962;28;19924;-53
2022/05/05 02:33:06;;;;;;;;;;;;;;;;;;5022796;28;20138;-52
2022/05/05 02:35:31;;;;;;;;;;;;;;;;;;5022633;28;19917;-51
2022/05/05 02:40:41;;;;;;;;;;;;;;;;;;5019785;28;19976;-53
2022/05/05 02:43:06;;;;;;;;;;;;;;;;;;5021284;28;19917;-53
2022/05/05 02:45:32;;;;;;;;;;;;;;;;;;5019318;28;19924;-54
2022/05/05 02:47:58;;;;;;;;;;;;;;;;;;5025074;28;19928;-54
2022/05/05 02:50:24;;;;;;;;;;;;;;;;;;5027042;28;19917;-54
2022/05/05 02:52:50;;;;;;;;;;;;;;;;;;5023183;28;20363;-54
2022/05/05 02:55:15;;;;;;;;;;;;;;;;;;5022588;28;20284;-54
2022/05/05 02:57:40;;;;;;;;;;;;;;;;;;5023864;28;19917;-53
2022/05/05 03:00:12;;;;;;;;;;;;;;;;;;5025115;28;19952;-54
2022/05/05 03:02:39;;;;;;;;;;;;;;;;;;5018753;28;19928;-53
2022/05/05 03:05:04;;;;;;;;;;;;;;;;;;5025045;28;19936;-52
2022/05/05 03:07:29;;;;;;;;;;;;;;;;;;5024713;28;19921;-53
2022/05/05 03:09:55;;;;;;;;;;;;;;;;;;5024633;28;20062;-54
2022/05/05 03:12:20;;;;;;;;;;;;;;;;;;5022880;28;20022;-54
2022/05/05 03:14:47;;;;;;;;;;;;;;;;;;5022657;28;20455;-53
2022/05/05 03:17:12;;;;;;;;;;;;;;;;;;5021882;28;20039;-53
2022/05/05 03:19:38;;;;;;;;;;;;;;;;;;5022120;28;20004;-55
2022/05/05 03:22:03;;;;;;;;;;;;;;;;;;5028839;28;19921;-52
2022/05/05 03:24:29;;;;;;;;;;;;;;;;;;5028216;28;19971;-53
2022/05/05 03:26:54;;;;;;;;;;;;;;;;;;5027301;28;19924;-54
2022/05/05 03:29:19;;;;;;;;;;;;;;;;;;5028731;28;20570;-53
2022/05/05 03:31:45;;;;;;;;;;;;;;;;;;5024923;28;20390;-54
2022/05/05 03:34:10;;;;;;;;;;;;;;;;;;5028775;28;19929;-54
2022/05/05 03:36:35;;;;;;;;;;;;;;;;;;5024128;28;19917;-55
2022/05/05 03:39:00;;;;;;;;;;;;;;;;;;5025834;28;20008;-54
2022/05/05 03:41:26;;;;;;;;;;;;;;;;;;5024153;28;19940;-53
2022/05/05 03:43:52;;;;;;;;;;;;;;;;;;5025460;28;19917;-54
2022/05/05 03:46:17;;;;;;;;;;;;;;;;;;5027942;28;19925;-58
2022/05/05 03:48:42;;;;;;;;;;;;;;;;;;5027639;28;19999;-52
2022/05/05 03:51:08;;;;;;;;;;;;;;;;;;5028336;28;19925;-54
2022/05/05 03:53:33;;;;;;;;;;;;;;;;;;5028576;28;19979;-52
2022/05/05 03:55:58;;;;;;;;;;;;;;;;;;5027116;28;19940;-54
2022/05/05 03:58:25;;;;;;;;;;;;;;;;;;5026799;28;20252;-54
2022/05/05 04:00:50;;;;;;;;;;;;;;;;;;5030313;28;19921;-53
2022/05/05 04:03:31;;;;;;;;;;;;;;;;;;5026977;28;20300;-54
2022/05/05 04:05:56;;;;;;;;;;;;;;;;;;5023178;28;20287;-53
2022/05/05 04:08:22;;;;;;;;;;;;;;;;;;5025464;28;19970;-54
2022/05/05 04:10:47;;;;;;;;;;;;;;;;;;5026935;28;19960;-54
2022/05/05 04:13:12;;;;;;;;;;;;;;;;;;5025368;28;19924;-54
2022/05/05 04:15:37;;;;;;;;;;;;;;;;;;5024695;28;20302;-54
2022/05/05 04:18:04;;;;;;;;;;;;;;;;;;5019067;28;19965;-54
2022/05/05 04:20:29;;;;;;;;;;;;;;;;;;5026986;28;19921;-52
2022/05/05 04:22:55;;;;;;;;;;;;;;;;;;5028252;28;19917;-54
2022/05/05 04:25:21;;;;;;;;;;;;;;;;;;5024442;28;19943;-54
2022/05/05 04:27:46;;;;;;;;;;;;;;;;;;5026859;28;19986;-58
2022/05/05 04:30:16;;;;;;;;;;;;;;;;;;5028286;28;19924;-58
2022/05/05 04:32:42;;;;;;;;;;;;;;;;;;5027415;28;20020;-58
2022/05/05 04:35:07;;;;;;;;;;;;;;;;;;5024492;28;20012;-58
2022/05/05 04:37:32;;;;;;;;;;;;;;;;;;5025427;28;20337;-58
2022/05/05 04:39:58;;;;;;;;;;;;;;;;;;5027319;28;19921;-57
2022/05/05 04:42:25;;;;;;;;;;;;;;;;;;5021719;28;20421;-56
2022/05/05 04:44:50;;;;;;;;;;;;;;;;;;5026253;28;19917;-57
2022/05/05 04:47:16;;;;;;;;;;;;;;;;;;5017267;28;19986;-57
2022/05/05 04:49:41;;;;;;;;;;;;;;;;;;5026705;28;20290;-57
2022/05/05 04:52:06;;;;;;;;;;;;;;;;;;5027348;28;19913;-57
2022/05/05 04:54:32;;;;;;;;;;;;;;;;;;5026510;28;19925;-57
2022/05/05 04:56:57;;;;;;;;;;;;;;;;;;5027000;28;19942;-56
2022/05/05 04:59:22;;;;;;;;;;;;;;;;;;5026000;28;20004;-57
2022/05/05 05:01:47;;;;;;;;;;;;;;;;;;5023220;28;19956;-56
2022/05/05 05:04:13;;;;;;;;;;;;;;;;;;5027272;28;19920;-57
2022/05/05 05:06:38;;;;;;;;;;;;;;;;;;5024051;28;19924;-57
2022/05/05 05:09:04;;;;;;;;;;;;;;;;;;5021345;28;19917;-57
2022/05/05 05:11:29;;;;;;;;;;;;;;;;;;5023635;28;19924;-57
2022/05/05 05:13:55;;;;;;;;;;;;;;;;;;5024987;28;19921;-56
2022/05/05 05:16:20;;;;;;;;;;;;;;;;;;5026874;28;20055;-58
2022/05/05 05:18:47;;;;;;;;;;;;;;;;;;5023885;28;20015;-57
2022/05/05 05:21:12;;;;;;;;;;;;;;;;;;5025221;28;19921;-58
2022/05/05 05:23:38;;;;;;;;;;;;;;;;;;5025411;28;20384;-58
2022/05/05 05:26:03;;;;;;;;;;;;;;;;;;5027203;28;19917;-57
2022/05/05 05:28:29;;;;;;;;;;;;;;;;;;5025717;28;19913;-57
2022/05/05 05:30:54;;;;;;;;;;;;;;;;;;5027918;28;19925;-58
2022/05/05 05:33:19;;;;;;;;;;;;;;;;;;5023882;28;20294;-58
2022/05/05 05:35:45;;;;;;;;;;;;;;;;;;5024993;28;19933;-58
2022/05/05 05:38:11;;;;;;;;;;;;;;;;;;5026012;28;19921;-57
2022/05/05 05:40:36;;;;;;;;;;;;;;;;;;5022840;28;20121;-57
2022/05/05 05:43:02;;;;;;;;;;;;;;;;;;5019483;28;19952;-57
2022/05/05 05:45:27;;;;;;;;;;;;;;;;;;5024815;28;19917;-57
2022/05/05 05:47:53;;;;;;;;;;;;;;;;;;5025454;28;20358;-57
2022/05/05 05:50:18;;;;;;;;;;;;;;;;;;5022576;28;19960;-57
2022/05/05 05:52:43;;;;;;;;;;;;;;;;;;5025090;28;19913;-58
2022/05/05 05:55:09;;;;;;;;;;;;;;;;;;5026047;28;19928;-56
2022/05/05 05:57:34;;;;;;;;;;;;;;;;;;5025164;28;19921;-56
2022/05/05 05:59:59;;;;;;;;;;;;;;;;;;5022876;28;19930;-56
2022/05/05 06:05:08;;;;;;;;;;;;;;;;;;5018552;28;19932;-57
2022/05/05 06:07:34;;;;;;;;;;;;;;;;;;5024451;28;19921;-57
2022/05/05 06:09:59;;;;;;;;;;;;;;;;;;5021882;28;19925;-57
2022/05/05 06:12:24;;;;;;;;;;;;;;;;;;5022935;28;20313;-57
2022/05/05 06:14:49;;;;;;;;;;;;;;;;;;5022917;28;19921;-57
2022/05/05 06:17:15;;;;;;;;;;;;;;;;;;5023691;28;20163;-57
2022/05/05 06:19:41;;;;;;;;;;;;;;;;;;5023907;28;19963;-57
2022/05/05 06:22:06;;;;;;;;;;;;;;;;;;5026170;28;19944;-57
2022/05/05 06:24:32;;;;;;;;;;;;;;;;;;5023117;28;20371;-57
2022/05/05 06:26:57;;;;;;;;;;;;;;;;;;5024912;28;20173;-57
2022/05/05 06:29:24;;;;;;;;;;;;;;;;;;5025209;28;19917;-57
2022/05/05 06:31:50;;;;;;;;;;;;;;;;;;5020147;28;19928;-56
2022/05/05 06:34:15;;;;;;;;;;;;;;;;;;5023843;28;20299;-56
2022/05/05 06:36:41;;;;;;;;;;;;;;;;;;5023333;28;19943;-56
2022/05/05 06:39:06;;;;;;;;;;;;;;;;;;5022414;28;19924;-57
2022/05/05 06:41:32;;;;;;;;;;;;;;;;;;5022253;28;19972;-56
2022/05/05 06:43:57;;;;;;;;;;;;;;;;;;5024251;28;20305;-57
2022/05/05 06:46:23;;;;;;;;;;;;;;;;;;5025495;28;19974;-56
2022/05/05 06:48:48;;;;;;;;;;;;;;;;;;5024196;28;20299;-58
2022/05/05 06:51:13;;;;;;;;;;;;;;;;;;5021356;28;20291;-57
2022/05/05 06:53:39;;;;;;;;;;;;;;;;;;5022845;28;19965;-57
2022/05/05 06:56:04;;;;;;;;;;;;;;;;;;5024497;28;20258;-57
2022/05/05 06:58:30;;;;;;;;;;;;;;;;;;5024072;28;19999;-57
2022/05/05 07:03:39;;;;;;;;;;;;;;;;;;5023129;28;20451;-57
2022/05/05 07:06:05;;;;;;;;;;;;;;;;;;5022854;28;20211;-57
2022/05/05 07:10:52;;;;;;;;;;;;;;;;;;5023960;28;20007;-57
2022/05/05 07:11:18;;;;;;;;;;;;;;;;;;5025400;28;20015;-57
2022/05/05 07:13:44;;;;;;;;;;;;;;;;;;5024065;28;20016;-57
2022/05/05 07:16:09;;;;;;;;;;;;;;;;;;5023143;28;19936;-58
2022/05/05 07:18:34;;;;;;;;;;;;;;;;;;5025233;28;19924;-57
2022/05/05 07:21:00;;;;;;;;;;;;;;;;;;5025222;28;19971;-57
2022/05/05 07:23:25;;;;;;;;;;;;;;;;;;5021418;28;19917;-57
2022/05/05 07:25:50;;;;;;;;;;;;;;;;;;5024315;28;19960;-57
2022/05/05 07:28:16;;;;;;;;;;;;;;;;;;5024033;28;19921;-57
2022/05/05 07:30:41;;;;;;;;;;;;;;;;;;5021512;28;19913;-57
2022/05/05 07:33:07;;;;;;;;;;;;;;;;;;5020873;28;20391;-57
2022/05/05 07:35:32;;;;;;;;;;;;;;;;;;5023036;28;19924;-57
2022/05/05 07:37:58;;;;;;;;;;;;;;;;;;5019639;28;19925;-57
2022/05/05 07:40:23;;;;;;;;;;;;;;;;;;5016328;28;19971;-57
2022/05/05 07:42:49;;;;;;;;;;;;;;;;;;5022700;28;19959;-57
2022/05/05 07:45:14;;;;;;;;;;;;;;;;;;5019977;28;20370;-57
2022/05/05 07:47:39;;;;;;;;;;;;;;;;;;5017359;28;20387;-57
2022/05/05 07:50:05;;;;;;;;;;;;;;;;;;5021709;28;20351;-57
2022/05/05 07:52:30;;;;;;;;;;;;;;;;;;5020167;28;20530;-57
2022/05/05 07:54:55;;;;;;;;;;;;;;;;;;5019226;28;19921;-57
2022/05/05 07:57:22;;;;;;;;;;;;;;;;;;5022878;28;19914;-57
2022/05/05 07:59:48;;;;;;;;;;;;;;;;;;5021860;28;19913;-57
2022/05/05 08:02:15;;;;;;;;;;;;;;;;;;5020935;28;19929;-57
2022/05/05 08:04:41;;;;;;;;;;;;;;;;;;5023848;28;19917;-58
2022/05/05 08:07:06;;;;;;;;;;;;;;;;;;5024434;28;19923;-59
2022/05/05 08:09:32;;;;;;;;;;;;;;;;;;5026299;28;19917;-58
2022/05/05 08:11:59;;;;;;;;;;;;;;;;;;5020716;28;19918;-58
2022/05/05 08:14:25;;;;;;;;;;;;;;;;;;5023245;28;19929;-58
2022/05/05 08:16:50;;;;;;;;;;;;;;;;;;5027938;28;19974;-58
2022/05/05 08:19:16;;;;;;;;;;;;;;;;;;5028574;28;20321;-57
2022/05/05 08:21:41;;;;;;;;;;;;;;;;;;5026239;28;20263;-57
2022/05/05 08:29:36;;;;;;;;;;;;;;;;;;5023532;28;20223;-58
2022/05/05 08:32:02;;;;;;;;;;;;;;;;;;5022903;28;19962;-58
2022/05/05 08:34:27;;;;;;;;;;;;;;;;;;5022127;28;19922;-58
2022/05/05 08:36:52;;;;;;;;;;;;;;;;;;5029425;28;19917;-57
2022/05/05 08:39:18;;;;;;;;;;;;;;;;;;5022925;28;19927;-58
2022/05/05 08:41:43;;;;;;;;;;;;;;;;;;5029062;28;19928;-58
2022/05/05 08:44:09;;;;;;;;;;;;;;;;;;5027678;28;19920;-58
2022/05/05 08:46:35;;;;;;;;;;;;;;;;;;5028536;28;19928;-58
2022/05/05 08:49:04;;;;;;;;;;;;;;;;;;5031910;28;19924;-58
2022/05/05 08:51:34;;;;;;;;;;;;;;;;;;5025284;28;19918;-58
2022/05/05 08:54:02;;;;;;;;;;;;;;;;;;5021629;28;19987;-58
2022/05/05 08:56:27;;;;;;;;;;;;;;;;;;5026327;28;19917;-58
2022/05/05 08:58:52;;;;;;;;;;;;;;;;;;5024830;28;19924;-58
2022/05/05 09:01:18;;;;;;;;;;;;;;;;;;5023710;28;20302;-58
2022/05/05 09:03:43;;;;;;;;;;;;;;;;;;5024482;28;20007;-58
2022/05/05 09:06:08;;;;;;;;;;;;;;;;;;5026692;28;19921;-58
2022/05/05 09:08:34;;;;;;;;;;;;;;;;;;5024229;28;19925;-58
2022/05/05 09:11:03;;;;;;;;;;;;;;;;;;5024402;28;19914;-58
2022/05/05 09:13:47;;;;;;;;;;;;;;;;;;5022851;28;20039;-58
2022/05/05 09:16:22;;;;;;;;;;;;;;;;;;5026004;28;20196;-58
2022/05/05 09:18:47;;;;;;;;;;;;;;;;;;5024896;28;19926;-57
2022/05/05 09:21:13;;;;;;;;;;;;;;;;;;5027023;28;20009;-57
2022/05/05 09:26:25;;;;;;;;;;;;;;;;;;5025167;28;19948;-58
2022/05/05 09:28:51;;;;;;;;;;;;;;;;;;5021661;28;19917;-58
2022/05/05 09:31:16;;;;;;;;;;;;;;;;;;5026747;28;20353;-57
2022/05/05 09:33:42;;;;;;;;;;;;;;;;;;5031199;28;19925;-57
2022/05/05 09:36:15;;;;;;;;;;;;;;;;;;5026763;28;19917;-57
2022/05/05 09:38:47;;;;;;;;;;;;;;;;;;5023921;28;20016;-57
2022/05/05 09:41:12;;;;;;;;;;;;;;;;;;5023771;28;20171;-58
2022/05/05 09:43:37;;;;;;;;;;;;;;;;;;5025394;28;19959;-58
2022/05/05 09:46:22;;;;;;;;;;;;;;;;;;5025993;28;19924;-58
2022/05/05 09:48:50;;;;;;;;;;;;;;;;;;5027664;28;19991;-59
2022/05/05 09:51:16;;;;;;;;;;;;;;;;;;5026300;28;19923;-59
2022/05/05 09:59:30;;;;;;;;;;;;;;;;;;5026958;28;20047;-59
2022/05/05 10:01:57;;;;;;;;;;;;;;;;;;5020060;28;19917;-59
2022/05/05 10:04:23;;;;;;;;;;;;;;;;;;5020999;28;20287;-59
2022/05/05 10:06:49;;;;;;;;;;;;;;;;;;5023318;28;19921;-58
2022/05/05 10:09:14;;;;;;;;;;;;;;;;;;5023454;28;19971;-59
2022/05/05 10:11:40;;;;;;;;;;;;;;;;;;5029404;28;19923;-59
2022/05/05 10:14:07;;;;;;;;;;;;;;;;;;5022613;28;20004;-59
2022/05/05 10:16:32;;;;;;;;;;;;;;;;;;5029007;28;19999;-58
2022/05/05 10:18:58;;;;;;;;;;;;;;;;;;5025947;28;20020;-59
2022/05/05 10:21:36;;;;;;;;;;;;;;;;;;5024836;28;19964;-59
2022/05/05 10:24:05;;;;;;;;;;;;;;;;;;5021990;28;19944;-59
2022/05/05 10:26:31;;;;;;;;;;;;;;;;;;5026165;28;19921;-59
2022/05/05 10:28:57;;;;;;;;;;;;;;;;;;5024440;28;19920;-59
2022/05/05 10:31:31;;;;;;;;;;;;;;;;;;5022425;28;19917;-59
2022/05/05 10:34:00;;;;;;;;;;;;;;;;;;5023009;28;19928;-59
2022/05/05 10:36:26;;;;;;;;;;;;;;;;;;5028742;28;20386;-58
2022/05/05 10:38:52;;;;;;;;;;;;;;;;;;5026733;28;19919;-58
2022/05/05 10:41:29;;;;;;;;;;;;;;;;;;5026997;28;19977;-58
2022/05/05 10:44:13;;;;;;;;;;;;;;;;;;5021457;28;19925;-58
2022/05/05 10:46:57;;;;;;;;;;;;;;;;;;5023619;28;19921;-53
2022/05/05 10:49:37;;;;;;;;;;;;;;;;;;5014716;28;19917;-52
2022/05/05 10:52:11;;;;;;;;;;;;;;;;;;5016905;28;19921;-53
2022/05/05 10:54:37;;;;;;;;;;;;;;;;;;5023892;28;19975;-58
2022/05/05 10:57:21;;;;;;;;;;;;;;;;;;5024820;28;19961;-59
2022/05/05 11:00:05;;;;;;;;;;;;;;;;;;5023383;28;19917;-58
2022/05/05 11:02:30;;;;;;;;;;;;;;;;;;5025048;28;19921;-58
2022/05/05 11:05:15;;;;;;;;;;;;;;;;;;5021393;28;19924;-58
2022/05/05 11:07:43;;;;;;;;;;;;;;;;;;5020957;28;19921;-58
2022/05/05 11:10:28;;;;;;;;;;;;;;;;;;5023546;28;19917;-58
2022/05/05 11:12:53;;;;;;;;;;;;;;;;;;5023723;28;19967;-58
2022/05/05 11:23:47;;;;;;;;;;;;;;;;;;5021123;28;19931;-58
2022/05/05 11:26:18;;;;;;;;;;;;;;;;;;5023268;28;20420;-57
2022/05/05 11:28:45;;;;;;;;;;;;;;;;;;5023000;28;19918;-60
2022/05/05 11:31:17;;;;;;;;;;;;;;;;;;5025251;28;19921;-58
2022/05/05 11:33:46;;;;;;;;;;;;;;;;;;5022277;28;20263;-58
2022/05/05 11:36:11;;;;;;;;;;;;;;;;;;5022837;28;19927;-58
2022/05/05 11:38:41;;;;;;;;;;;;;;;;;;5024452;28;20000;-59
2022/05/05 11:41:07;;;;;;;;;;;;;;;;;;5018938;28;19925;-58
2022/05/05 11:46:17;;;;;;;;;;;;;;;;;;5026520;28;20025;-58
2022/05/05 11:48:43;;;;;;;;;;;;;;;;;;5027550;28;20004;-60
2022/05/05 11:51:09;;;;;;;;;;;;;;;;;;5021298;28;19930;-58
2022/05/05 11:53:35;;;;;;;;;;;;;;;;;;5026379;28;19982;-57
2022/05/05 11:56:00;;;;;;;;;;;;;;;;;;5023480;28;19920;-58
2022/05/05 12:04:00;;;;;;;;;;;;;;;;;;5024597;28;20056;-58
2022/05/05 12:06:25;;;;;;;;;;;;;;;;;;5025422;28;19921;-58
2022/05/05 12:08:51;;;;;;;;;;;;;;;;;;5026211;28;19924;-58
2022/05/05 12:11:16;;;;;;;;;;;;;;;;;;5025686;28;20039;-57
2022/05/05 12:13:42;;;;;;;;;;;;;;;;;;5029397;28;19923;-58
2022/05/05 12:16:08;;;;;;;;;;;;;;;;;;5031820;28;19918;-58
2022/05/05 12:18:33;;;;;;;;;;;;;;;;;;5029122;28;20003;-57
2022/05/05 12:20:58;;;;;;;;;;;;;;;;;;5027788;28;20019;-57
2022/05/05 12:23:26;;;;;;;;;;;;;;;;;;5030183;28;19917;-58
2022/05/05 12:25:51;;;;;;;;;;;;;;;;;;5027143;28;20009;-58
2022/05/05 12:28:17;;;;;;;;;;;;;;;;;;5026592;28;20119;-58
2022/05/05 12:30:43;;;;;;;;;;;;;;;;;;5026180;28;19917;-58
2022/05/05 12:33:12;;;;;;;;;;;;;;;;;;5027165;28;19921;-58
2022/05/05 12:35:39;;;;;;;;;;;;;;;;;;5028886;28;19921;-58
2022/05/05 12:38:05;;;;;;;;;;;;;;;;;;5027882;28;19944;-58
2022/05/05 12:40:30;;;;;;;;;;;;;;;;;;5027195;28;19923;-58
2022/05/05 12:42:59;;;;;;;;;;;;;;;;;;5028073;28;20015;-57
2022/05/05 12:45:27;;;;;;;;;;;;;;;;;;5026294;28;19918;-58
2022/05/05 12:47:53;;;;;;;;;;;;;;;;;;5027048;28;20431;-57
2022/05/05 12:50:57;;;;;;;;;;;;;;;;;;5026339;28;19971;-57
2022/05/05 13:01:42;;;;;;;;;;;;;;;;;;5027674;28;19971;-58
2022/05/05 13:04:10;;;;;;;;;;;;;;;;;;5028928;28;20306;-59
2022/05/05 13:06:37;;;;;;;;;;;;;;;;;;5023040;28;19925;-60
2022/05/05 13:09:05;;;;;;;;;;;;;;;;;;5023844;28;19918;-59
2022/05/05 13:11:31;;;;;;;;;;;;;;;;;;5027717;28;19925;-59
2022/05/05 13:13:56;;;;;;;;;;;;;;;;;;5027255;28;20093;-58
2022/05/05 13:16:21;;;;;;;;;;;;;;;;;;5027431;28;19920;-58
2022/05/05 13:18:47;;;;;;;;;;;;;;;;;;5026225;28;20017;-58
2022/05/05 13:21:12;;;;;;;;;;;;;;;;;;5025317;28;19917;-58
2022/05/05 13:23:39;;;;;;;;;;;;;;;;;;5024214;28;19963;-58
2022/05/05 13:26:05;;;;;;;;;;;;;;;;;;5023281;28;19928;-58
2022/05/05 13:28:31;;;;;;;;;;;;;;;;;;5023988;28;19926;-58
2022/05/05 13:30:56;;;;;;;;;;;;;;;;;;5026165;28;19921;-59
2022/05/05 13:33:22;;;;;;;;;;;;;;;;;;5022135;28;19925;-59
2022/05/05 13:35:47;;;;;;;;;;;;;;;;;;5025971;28;19994;-59
2022/05/05 13:38:12;;;;;;;;;;;;;;;;;;5020575;28;20272;-59
2022/05/05 13:40:38;;;;;;;;;;;;;;;;;;5024521;28;19921;-58
2022/05/05 13:43:03;;;;;;;;;;;;;;;;;;5026240;28;20401;-58
2022/05/05 13:45:28;;;;;;;;;;;;;;;;;;5025800;28;19921;-58
2022/05/05 13:47:54;;;;;;;;;;;;;;;;;;5026944;28;20294;-58
2022/05/05 13:50:20;;;;;;;;;;;;;;;;;;5024997;28;19963;-58
2022/05/05 13:52:45;;;;;;;;;;;;;;;;;;5025699;28;20391;-58
2022/05/05 13:55:11;;;;;;;;;;;;;;;;;;5024028;28;19960;-58
2022/05/05 13:57:37;;;;;;;;;;;;;;;;;;5024143;28;20345;-58
2022/05/05 14:00:05;;;;;;;;;;;;;;;;;;5021132;28;19924;-58
2022/05/05 14:02:30;;;;;;;;;;;;;;;;;;5022426;28;19917;-58
2022/05/05 14:04:56;;;;;;;;;;;;;;;;;;5025583;28;19924;-57
2022/05/05 14:12:10;;;;;;;;;;;;;;;;;;5023258;28;19917;-58
2022/05/05 14:12:50;;;;;;;;;;;;;;;;;;5025485;28;20269;-58
2022/05/05 14:15:16;;;;;;;;;;;;;;;;;;5025811;28;19925;-57
2022/05/05 14:17:41;;;;;;;;;;;;;;;;;;5024648;28;20382;-58
2022/05/05 14:20:07;;;;;;;;;;;;;;;;;;5025178;28;19921;-58
2022/05/05 14:22:32;;;;;;;;;;;;;;;;;;5021407;28;19921;-57
2022/05/05 14:24:57;;;;;;;;;;;;;;;;;;5029656;28;19917;-59
2022/05/05 14:27:22;;;;;;;;;;;;;;;;;;5021831;28;19917;-58
2022/05/05 14:29:48;;;;;;;;;;;;;;;;;;5020800;28;19925;-58
2022/05/05 14:32:14;;;;;;;;;;;;;;;;;;5025299;28;19917;-58
2022/05/05 14:34:39;;;;;;;;;;;;;;;;;;5027592;28;19924;-58
2022/05/05 14:37:04;;;;;;;;;;;;;;;;;;5027347;28;20008;-57
2022/05/05 14:39:30;;;;;;;;;;;;;;;;;;5028659;28;19948;-58
2022/05/05 14:41:55;;;;;;;;;;;;;;;;;;5028097;28;19956;-59
2022/05/05 14:44:22;;;;;;;;;;;;;;;;;;5026626;28;20312;-58
2022/05/05 14:46:48;;;;;;;;;;;;;;;;;;5024451;28;20401;-58
2022/05/05 14:49:13;;;;;;;;;;;;;;;;;;5026234;28;19917;-58
2022/05/05 14:51:38;;;;;;;;;;;;;;;;;;5026240;28;19940;-58
2022/05/05 14:54:04;;;;;;;;;;;;;;;;;;5023264;28;19983;-58
2022/05/05 14:56:29;;;;;;;;;;;;;;;;;;5023448;28;19917;-58
2022/05/05 14:58:54;;;;;;;;;;;;;;;;;;5022143;28;20079;-59
2022/05/05 15:01:21;;;;;;;;;;;;;;;;;;5019864;28;19918;-59
2022/05/05 15:03:47;;;;;;;;;;;;;;;;;;5024204;28;19924;-58
2022/05/05 15:06:12;;;;;;;;;;;;;;;;;;5025884;28;19917;-58
2022/05/05 15:08:38;;;;;;;;;;;;;;;;;;5022708;28;19976;-58
2022/05/05 15:11:03;;;;;;;;;;;;;;;;;;5029209;28;19972;-58
2022/05/05 15:13:29;;;;;;;;;;;;;;;;;;5025959;28;19921;-59
2022/05/05 15:15:54;;;;;;;;;;;;;;;;;;5026738;28;19921;-58
2022/05/05 15:18:20;;;;;;;;;;;;;;;;;;5025613;28;19924;-58
2022/05/05 15:20:45;;;;;;;;;;;;;;;;;;5026484;28;19967;-61
2022/05/05 15:23:12;;;;;;;;;;;;;;;;;;5026753;28;20464;-61
2022/05/05 15:25:37;;;;;;;;;;;;;;;;;;5026682;28;19940;-60
2022/05/05 15:28:03;;;;;;;;;;;;;;;;;;5027105;28;20363;-61
2022/05/05 15:30:28;;;;;;;;;;;;;;;;;;5029549;28;20038;-61
2022/05/05 15:32:53;;;;;;;;;;;;;;;;;;5022207;28;20437;-53
2022/05/05 15:35:18;;;;;;;;;;;;;;;;;;5030161;28;19925;-53
2022/05/05 15:37:44;;;;;;;;;;;;;;;;;;5031496;28;19932;-55
2022/05/05 15:40:10;;;;;;;;;;;;;;;;;;5029403;28;19928;-56
2022/05/05 15:42:35;;;;;;;;;;;;;;;;;;5027350;28;20438;-55
2022/05/05 15:45:01;;;;;;;;;;;;;;;;;;5028838;28;20038;-54
2022/05/05 15:47:29;;;;;;;;;;;;;;;;;;5028311;28;20256;-56
2022/05/05 15:49:55;;;;;;;;;;;;;;;;;;5024316;28;19917;-51
2022/05/05 15:52:20;;;;;;;;;;;;;;;;;;5022256;28;19932;-51
2022/05/05 15:54:46;;;;;;;;;;;;;;;;;;5028732;28;19921;-59
2022/05/05 15:57:14;;;;;;;;;;;;;;;;;;5029607;28;19924;-59
2022/05/05 15:59:39;;;;;;;;;;;;;;;;;;5027766;28;20445;-59
2022/05/05 16:02:06;;;;;;;;;;;;;;;;;;5023433;28;19921;-61
2022/05/05 16:04:31;;;;;;;;;;;;;;;;;;5026114;28;19921;-59
2022/05/05 16:06:57;;;;;;;;;;;;;;;;;;5019953;28;19917;-59
2022/05/05 16:09:22;;;;;;;;;;;;;;;;;;5032124;28;19917;-58
2022/05/05 16:11:47;;;;;;;;;;;;;;;;;;5027490;28;19924;-57
2022/05/05 16:14:13;;;;;;;;;;;;;;;;;;5026768;28;19925;-59
2022/05/05 16:16:38;;;;;;;;;;;;;;;;;;5025780;28;19921;-58
2022/05/05 16:19:04;;;;;;;;;;;;;;;;;;5024776;28;19964;-58
2022/05/05 16:21:29;;;;;;;;;;;;;;;;;;5027566;28;19921;-59
2022/05/05 16:23:54;;;;;;;;;;;;;;;;;;5022669;28;19943;-59
2022/05/05 16:32:05;;;;;;;;;;;;;;;;;;5026184;28;19917;-57
2022/05/05 16:34:31;;;;;;;;;;;;;;;;;;5028691;28;19920;-59
2022/05/05 16:36:56;;;;;;;;;;;;;;;;;;5027015;28;20378;-59
2022/05/05 16:39:24;;;;;;;;;;;;;;;;;;5026710;28;20314;-60
2022/05/05 16:41:50;;;;;;;;;;;;;;;;;;5027779;28;20397;-59
2022/05/05 16:44:17;;;;;;;;;;;;;;;;;;5025330;28;19921;-60
2022/05/05 16:46:42;;;;;;;;;;;;;;;;;;5024208;28;20383;-60
2022/05/05 16:49:08;;;;;;;;;;;;;;;;;;5021753;28;19925;-58
2022/05/05 16:51:33;;;;;;;;;;;;;;;;;;5023087;28;19917;-59
2022/05/05 16:53:58;;;;;;;;;;;;;;;;;;5023861;28;19936;-59
2022/05/05 16:56:24;;;;;;;;;;;;;;;;;;5025381;28;19932;-60
2022/05/05 16:58:50;;;;;;;;;;;;;;;;;;5022427;28;19924;-60
2022/05/05 17:01:15;;;;;;;;;;;;;;;;;;5023986;28;19917;-60
2022/05/05 17:03:41;;;;;;;;;;;;;;;;;;5023111;28;19917;-59
2022/05/05 17:06:06;;;;;;;;;;;;;;;;;;5023187;28;20006;-58
2022/05/05 17:08:32;;;;;;;;;;;;;;;;;;5026660;28;20030;-60
2022/05/05 17:10:59;;;;;;;;;;;;;;;;;;5023003;28;19917;-60
2022/05/05 17:13:25;;;;;;;;;;;;;;;;;;5025674;28;19964;-58
2022/05/05 17:15:50;;;;;;;;;;;;;;;;;;5025703;28;19957;-58
2022/05/05 17:18:15;;;;;;;;;;;;;;;;;;5024310;28;19960;-58
2022/05/05 17:20:41;;;;;;;;;;;;;;;;;;5023149;28;19924;-59
2022/05/05 17:23:07;;;;;;;;;;;;;;;;;;5021604;28;19925;-58
2022/05/05 17:25:32;;;;;;;;;;;;;;;;;;5024207;28;19928;-58
2022/05/05 17:27:57;;;;;;;;;;;;;;;;;;5025424;28;20397;-59
2022/05/05 17:30:23;;;;;;;;;;;;;;;;;;5028055;28;19948;-60
2022/05/05 17:32:48;;;;;;;;;;;;;;;;;;5022965;28;19940;-57
2022/05/05 17:35:14;;;;;;;;;;;;;;;;;;5026330;28;19968;-59
2022/05/05 17:37:39;;;;;;;;;;;;;;;;;;5025998;28;19921;-59
2022/05/05 17:40:05;;;;;;;;;;;;;;;;;;5018880;28;19944;-59
2022/05/05 17:42:31;;;;;;;;;;;;;;;;;;5014546;28;19917;-58
2022/05/05 17:50:30;;;;;;;;;;;;;;;;;;5022207;28;19940;-59
2022/05/05 17:52:56;;;;;;;;;;;;;;;;;;5027522;28;19928;-59